Hlavní strana
METAR-TAF:

METAR-TAF

Letiště :

Såtenäs, Švédsko

zeměpisná šířka: 58-26N, zeměpisná délka: 012-42E, výška: 54 m

Aktuální stav počasí

Zpráva byla vytvořena před 16 minutami, v 15:20 UTC
Západojihozápadní vítr 7 kt
Teplota 8°C
Vlhkost vzduchu 71%
Tlak 1030 hPa
Viditelnost 10 km a více

METAR: ESIB 281520Z AUTO 24007KT 9999 NCD 08/03 Q1030

Čas: 16:36 (15:36 UTC)


TAF: chybějící

Stav a předpovědi počasí z více než 4 000 letišť (zprávy METAR a TAF).

Červené a žluté tečky na mapě představují dostupné meteorologické stanice.

Když kurzor umístíte na tečku, zobrazí se název stanice.

Pak kliknutím zobrazíte stav a předpověď počasí.

Chcete-li změnit mapu, kliknutím na zelené tlačítko se znaménkem +mapu přiblížíte, kliknutím na zelené tlačítko se znaménkem – mapu oddálíte a kliknutím na zelené šipky přejdete na sousední mapy.


METAR-TAF: